Terminal Aerodrome Forecast
Issued by NWS

Home | Current Version | Previous Version | Text Only | Print | Product List | Glossary On
Versions: 1 2 3 4 5 6 7 8 9 10 11 12 13 14 15 16 17 18 19 20 21 22 23 24 25 26 27 28
242
FTUS43 KFGF 110530
TAFDVL
TAF
KDVL 110530Z 1106/1206 09008KT P6SM OVC040
      TEMPO 1107/1110 1SM -SN OVC015
     FM111000 07008KT P6SM -SN OVC025
      TEMPO 1110/1112 1SM -SN OVC015
     FM111300 05007KT P6SM OVC020
      TEMPO 1113/1115 4SM -SN OVC012
     FM111900 35006KT P6SM BKN030
     FM112100 30008KT P6SM BKN035=

USA.gov is the U.S. government's official web portal to all federal, state and local government web resources and services.